Amendola Airport LIBA

Flugplatz Daten

Name: Amendola Airport

Ident: LIBA

Lat: 41,54140091

Long: 15,71809959

Platzhöhe: 183 ft

IataCode:

City: Foggia

Metar

2021/12/03 23:55
LIBA 032355Z 28007KT 9999 FEW040 08/04 Q1011 RMK FEW VIS MIN 9999 WIND THR11 26007KT WIND THR29 /////KT BLU

Taf

2021/12/02 18:24
TAF TAF LIBA 021700Z 0218/0306 14012KT 9999 SCT030 SCT060
TEMPO 0302/0306 7000 RA BKN030 BKN060
Gewünschte Webcam nicht vorhanden? Dann fügen Sie eine hinzu. Sie wird dann so schnell wie möglich freigeschaltet
Url: Title: